Agency, Iowa
Current Conditions -  °F | °C
As of 7:03 AM on Sunday 23 Nov 2014 (Local Time) from KOTM Reporting Station
Light Rain Light Rain  
Wind Chill: 51°   Ceiling: 1900
Heat Index: 51°   Visibility: 8mi
Dew Point: 49°   Wind: 12mph
Humidity: 92%   Direction: 160°SSE
Pressure: 29.58"   Gusts: NA
Location:  41°N, 92.31°W
Report Text: KOTM 231303Z AUTO 16010KT 8SM -RA SCT008 SCT015 OVC019 11/09 A2958 RMK AO2 P0000 T01060094
Loading
Personal Weather Stations






























Interactive Weather Map New forecast layout! Learn more

10-Day Weather Forecast

Advertisements
Track Severe Weather on mobile